createdAt,value
2023-01-22T00:02:16.226Z,0.60
2023-01-22T00:04:43.135Z,0.68
2023-01-22T00:07:10.101Z,0.60
2023-01-22T00:09:37.155Z,0.52
2023-01-22T00:12:04.071Z,0.60
2023-01-22T00:14:30.736Z,0.70
2023-01-22T00:16:57.720Z,0.60
2023-01-22T00:19:24.411Z,0.70
2023-01-22T00:21:51.036Z,0.70
2023-01-22T00:24:17.702Z,0.80
2023-01-22T00:26:44.457Z,0.70
2023-01-22T00:29:12.023Z,0.63
2023-01-22T00:31:38.729Z,0.75
2023-01-22T00:34:05.468Z,0.63
2023-01-22T00:36:32.077Z,0.60
2023-01-22T00:38:58.738Z,2.50
2023-01-22T00:41:25.345Z,0.73
2023-01-22T00:43:53.108Z,1.65
2023-01-22T00:46:20.055Z,1.00
2023-01-22T00:48:49.391Z,1.30
2023-01-22T00:51:16.151Z,1.33
2023-01-22T00:53:43.973Z,0.82
2023-01-22T00:56:12.788Z,0.80
2023-01-22T00:58:39.764Z,0.63
2023-01-22T01:01:07.265Z,0.60
2023-01-22T01:03:35.179Z,0.68
2023-01-22T01:06:03.726Z,0.70
2023-01-22T01:08:33.193Z,0.80
2023-01-22T01:11:03.503Z,0.60
2023-01-22T01:13:33.858Z,0.50
2023-01-22T01:16:02.908Z,0.65
2023-01-22T01:18:30.853Z,0.57
2023-01-22T01:20:59.816Z,0.70
2023-01-22T01:23:28.155Z,0.70
2023-01-22T01:25:55.667Z,0.50
2023-01-22T01:28:22.652Z,0.70
2023-01-22T01:30:49.295Z,0.60
2023-01-22T01:33:15.927Z,0.75
2023-01-22T01:35:42.534Z,0.82
2023-01-22T01:38:09.188Z,0.50
2023-01-22T01:40:41.011Z,0.52
2023-01-22T01:43:16.772Z,0.82
2023-01-22T01:45:43.608Z,0.60
2023-01-22T01:48:23.404Z,0.55
2023-01-22T01:51:07.500Z,0.73
2023-01-22T01:53:35.106Z,0.60
2023-01-22T01:56:05.384Z,0.50
2023-01-22T01:58:34.426Z,0.50
2023-01-22T02:01:08.438Z,1.52
2023-01-22T02:03:35.167Z,4.97
2023-01-22T02:06:01.759Z,5.93
2023-01-22T02:08:28.980Z,6.47
2023-01-22T02:10:56.825Z,6.93
2023-01-22T02:13:29.029Z,7.40
2023-01-22T02:15:56.088Z,7.00
2023-01-22T02:18:22.783Z,7.53
2023-01-22T02:20:57.344Z,7.10
2023-01-22T02:23:24.732Z,7.32
2023-01-22T02:25:52.273Z,8.30
2023-01-22T02:28:19.644Z,6.90
2023-01-22T02:30:48.127Z,6.70
2023-01-22T02:33:17.121Z,7.47
2023-01-22T02:35:44.871Z,7.95
2023-01-22T02:38:11.784Z,7.28
2023-01-22T02:40:49.039Z,8.13
2023-01-22T02:43:18.537Z,8.00
2023-01-22T02:45:45.376Z,8.20
2023-01-22T02:48:12.776Z,8.13
2023-01-22T02:50:39.664Z,8.15
2023-01-22T02:53:06.409Z,7.60
2023-01-22T02:55:34.019Z,7.82
2023-01-22T02:58:00.683Z,7.70
2023-01-22T03:00:27.298Z,7.15
2023-01-22T03:02:55.120Z,7.63
2023-01-22T03:05:21.808Z,7.53
2023-01-22T03:07:48.478Z,7.93
2023-01-22T03:10:20.434Z,7.20
2023-01-22T03:13:06.469Z,8.05
2023-01-22T03:15:52.277Z,7.85
2023-01-22T03:18:37.937Z,7.07
2023-01-22T03:21:16.869Z,7.45
2023-01-22T03:23:46.368Z,7.13
2023-01-22T03:26:14.920Z,7.45
2023-01-22T03:28:42.097Z,6.75
2023-01-22T03:31:09.523Z,7.43
2023-01-22T03:33:36.631Z,7.57
2023-01-22T03:36:09.196Z,7.10
2023-01-22T03:38:37.959Z,7.03
2023-01-22T03:41:11.105Z,7.05
2023-01-22T03:43:41.673Z,6.80
2023-01-22T03:46:16.882Z,4.00
2023-01-22T03:48:49.751Z,1.80
2023-01-22T03:51:16.930Z,1.25
2023-01-22T03:53:45.015Z,0.90
2023-01-22T03:56:15.346Z,0.68
2023-01-22T03:58:42.943Z,0.50
2023-01-22T04:01:13.080Z,0.75
2023-01-22T04:03:40.153Z,0.75
2023-01-22T04:06:09.087Z,0.60
2023-01-22T04:08:40.406Z,0.70
2023-01-22T04:11:07.827Z,0.70
2023-01-22T04:13:37.453Z,0.93
2023-01-22T04:16:05.623Z,0.70
2023-01-22T04:18:50.728Z,0.80
2023-01-22T04:21:43.544Z,0.90
2023-01-22T04:24:13.398Z,0.90
2023-01-22T04:26:40.598Z,0.73
2023-01-22T04:29:07.222Z,0.95
2023-01-22T04:31:34.768Z,0.70
2023-01-22T04:34:24.195Z,0.77
2023-01-22T04:37:26.173Z,0.85
2023-01-22T04:39:52.858Z,0.90
2023-01-22T04:42:19.480Z,0.82
2023-01-22T04:44:47.178Z,0.80
2023-01-22T04:47:13.902Z,0.95
2023-01-22T04:49:40.888Z,0.80
2023-01-22T04:52:10.724Z,0.80
2023-01-22T04:54:37.552Z,0.98
2023-01-22T04:57:04.229Z,0.80
2023-01-22T04:59:30.843Z,0.85
2023-01-22T05:01:58.049Z,0.85
2023-01-22T05:04:24.913Z,0.60
2023-01-22T05:06:51.556Z,0.70
2023-01-22T05:09:19.064Z,0.70
2023-01-22T05:11:58.575Z,0.80
2023-01-22T05:14:26.504Z,0.70
2023-01-22T05:16:53.206Z,0.73
2023-01-22T05:19:19.955Z,1.15
2023-01-22T05:21:47.821Z,0.95
2023-01-22T05:24:18.513Z,1.00
2023-01-22T05:26:45.604Z,0.80
2023-01-22T05:29:19.936Z,1.00
2023-01-22T05:32:18.864Z,0.90
2023-01-22T05:34:52.022Z,0.70
2023-01-22T05:37:18.816Z,0.80
2023-01-22T05:39:45.747Z,1.00
2023-01-22T05:42:16.038Z,1.10
2023-01-22T05:44:45.116Z,1.00
2023-01-22T05:47:13.628Z,1.00
2023-01-22T05:49:48.246Z,1.05
2023-01-22T05:52:16.250Z,1.23
2023-01-22T05:54:44.506Z,1.40
2023-01-22T05:57:11.270Z,1.00
2023-01-22T05:59:39.093Z,0.90
2023-01-22T06:02:07.903Z,0.80
2023-01-22T06:04:39.101Z,0.88
2023-01-22T06:07:16.439Z,0.70
2023-01-22T06:09:43.093Z,0.70
2023-01-22T06:12:09.736Z,0.70
2023-01-22T06:14:36.314Z,0.70
2023-01-22T06:17:03.769Z,0.70
2023-01-22T06:19:38.944Z,0.75
2023-01-22T06:22:06.536Z,0.90
2023-01-22T06:24:44.105Z,0.73
2023-01-22T06:27:12.411Z,0.60
2023-01-22T06:29:49.408Z,0.80
2023-01-22T06:32:16.396Z,0.85
2023-01-22T06:34:43.123Z,0.80
2023-01-22T06:37:09.780Z,0.82
2023-01-22T06:39:38.961Z,1.00
2023-01-22T06:42:14.239Z,1.00
2023-01-22T06:44:40.931Z,1.00
2023-01-22T06:47:07.759Z,1.00
2023-01-22T06:49:34.466Z,0.65
2023-01-22T06:52:01.117Z,0.90
2023-01-22T06:54:31.876Z,1.23
2023-01-22T06:56:59.166Z,0.85
2023-01-22T06:59:25.766Z,1.00
2023-01-22T07:01:52.505Z,0.82
2023-01-22T07:04:19.103Z,0.80
2023-01-22T07:06:45.665Z,0.80
2023-01-22T07:09:12.288Z,0.82
2023-01-22T07:11:38.868Z,0.90
2023-01-22T07:14:07.518Z,0.70
2023-01-22T07:16:34.187Z,0.77
2023-01-22T07:19:01.046Z,0.90
2023-01-22T07:21:27.716Z,0.70
2023-01-22T07:23:55.016Z,0.70
2023-01-22T07:26:21.610Z,0.88
2023-01-22T07:28:48.223Z,0.90
2023-01-22T07:31:15.015Z,0.80
2023-01-22T07:33:42.024Z,0.75
2023-01-22T07:36:08.671Z,0.80
2023-01-22T07:38:35.289Z,0.80
2023-01-22T07:41:16.881Z,0.75
2023-01-22T07:43:44.001Z,0.82
2023-01-22T07:46:10.721Z,0.80
2023-01-22T07:48:38.132Z,0.90
2023-01-22T07:51:06.646Z,1.00
2023-01-22T07:53:34.979Z,0.88
2023-01-22T07:56:02.355Z,1.08
2023-01-22T07:58:28.935Z,1.17
2023-01-22T08:00:55.582Z,0.90
2023-01-22T08:03:22.233Z,0.82
2023-01-22T08:05:48.810Z,1.30
2023-01-22T08:08:18.918Z,0.80
2023-01-22T08:10:46.686Z,0.70
2023-01-22T08:13:13.306Z,0.80
2023-01-22T08:15:42.044Z,1.65
2023-01-22T08:18:10.810Z,0.90
2023-01-22T08:20:37.500Z,0.93
2023-01-22T08:23:04.085Z,1.13
2023-01-22T08:25:30.700Z,1.00
2023-01-22T08:28:01.944Z,0.90
2023-01-22T08:30:28.567Z,0.90
2023-01-22T08:32:55.359Z,1.00
2023-01-22T08:35:24.419Z,1.10
2023-01-22T08:37:52.277Z,1.00
2023-01-22T08:40:19.018Z,0.90
2023-01-22T08:42:51.384Z,1.20
2023-01-22T08:45:18.141Z,1.02
2023-01-22T08:47:44.699Z,0.85
2023-01-22T08:50:11.379Z,1.17
2023-01-22T08:52:38.063Z,1.15
2023-01-22T08:55:06.833Z,0.98
2023-01-22T08:57:33.407Z,1.38
2023-01-22T09:00:01.601Z,1.27
2023-01-22T09:02:28.458Z,1.00
2023-01-22T09:04:55.064Z,1.45
2023-01-22T09:07:21.726Z,0.98
2023-01-22T09:09:48.363Z,5.20
2023-01-22T09:12:14.927Z,2.97
2023-01-22T09:14:41.731Z,1.60
2023-01-22T09:17:08.829Z,2.67
2023-01-22T09:19:35.440Z,2.08
2023-01-22T09:22:06.473Z,1.77
2023-01-22T09:24:33.399Z,1.70
2023-01-22T09:27:00.129Z,1.95
2023-01-22T09:29:26.753Z,1.70
2023-01-22T09:31:53.507Z,2.72
2023-01-22T09:34:20.198Z,1.95
2023-01-22T09:36:46.961Z,2.63
2023-01-22T09:39:13.531Z,3.35
2023-01-22T09:41:46.641Z,5.65
2023-01-22T09:47:04.494Z,3.50
2023-01-22T09:49:58.737Z,5.03
2023-01-22T09:52:29.539Z,2.75
2023-01-22T09:54:56.528Z,2.97
2023-01-22T09:57:31.591Z,2.60
2023-01-22T09:59:59.076Z,2.55
2023-01-22T10:02:43.584Z,1.73
2023-01-22T10:05:34.722Z,2.92
2023-01-22T10:08:04.268Z,2.47
2023-01-22T10:10:32.738Z,2.90
2023-01-22T10:13:10.932Z,2.47
2023-01-22T10:15:37.808Z,2.47
2023-01-22T10:18:24.224Z,2.22
2023-01-22T10:20:52.280Z,1.95
2023-01-22T10:23:22.447Z,3.13
2023-01-22T10:25:49.118Z,3.13
2023-01-22T10:28:16.087Z,2.05
2023-01-22T10:30:50.361Z,2.03
2023-01-22T10:33:20.919Z,3.42
2023-01-22T10:35:50.209Z,2.20
2023-01-22T10:38:24.655Z,3.20
2023-01-22T10:41:00.377Z,2.25
2023-01-22T10:43:32.914Z,2.20
2023-01-22T10:46:27.240Z,2.05
2023-01-22T10:49:05.910Z,2.47
2023-01-22T10:51:50.327Z,3.00
2023-01-22T10:54:23.717Z,2.08
2023-01-22T10:56:51.000Z,3.13
2023-01-22T10:59:20.583Z,2.33
2023-01-22T11:01:53.517Z,2.30
2023-01-22T11:06:54.086Z,2.08
2023-01-22T11:09:31.754Z,1.63
2023-01-22T11:12:14.567Z,3.30
2023-01-22T11:14:41.567Z,2.30
2023-01-22T11:17:22.379Z,1.75
2023-01-22T11:20:03.070Z,2.00
2023-01-22T11:22:39.699Z,2.00
2023-01-22T11:25:10.947Z,1.85
2023-01-22T11:27:59.369Z,1.80
2023-01-22T11:31:04.603Z,2.13
2023-01-22T11:33:37.233Z,1.63
2023-01-22T11:36:22.320Z,1.30
2023-01-22T11:38:54.637Z,2.03
2023-01-22T11:41:36.313Z,1.77
2023-01-22T11:44:21.968Z,1.40
2023-01-22T11:46:54.606Z,1.58
2023-01-22T11:49:44.179Z,1.42
2023-01-22T11:52:33.378Z,1.40
2023-01-22T11:55:29.461Z,1.50
2023-01-22T11:58:05.156Z,1.42
2023-01-22T12:00:38.018Z,1.23
2023-01-22T12:03:19.940Z,1.50
2023-01-22T12:06:13.468Z,1.10
2023-01-22T12:09:05.368Z,1.77
2023-01-22T12:11:59.096Z,1.20
2023-01-22T12:17:28.906Z,1.13
2023-01-22T12:20:14.446Z,2.00
2023-01-22T12:22:51.291Z,3.80
2023-01-22T12:25:21.257Z,3.42
2023-01-22T12:27:56.003Z,1.80
2023-01-22T12:30:28.809Z,1.25
2023-01-22T12:32:59.772Z,1.23
2023-01-22T12:35:30.234Z,1.45
2023-01-22T12:37:59.783Z,1.15
2023-01-22T12:40:48.931Z,1.23
2023-01-22T12:43:20.301Z,1.65
2023-01-22T12:45:59.403Z,1.30
2023-01-22T12:48:30.799Z,1.02
2023-01-22T12:50:58.680Z,1.20
2023-01-22T12:53:27.295Z,1.17
2023-01-22T12:56:05.718Z,1.50
2023-01-22T12:58:37.050Z,1.50
2023-01-22T13:01:25.490Z,1.48
2023-01-22T13:04:03.839Z,1.30
2023-01-22T13:06:39.051Z,1.23
2023-01-22T13:09:22.643Z,1.50
2023-01-22T13:11:49.500Z,2.08
2023-01-22T13:14:22.966Z,1.65
2023-01-22T13:16:56.389Z,2.22
2023-01-22T13:19:27.400Z,2.63
2023-01-22T13:21:58.687Z,1.80
2023-01-22T13:24:25.541Z,1.90
2023-01-22T13:27:00.420Z,1.70
2023-01-22T13:29:34.048Z,2.20
2023-01-22T13:32:04.727Z,2.40
2023-01-22T13:34:32.455Z,2.78
2023-01-22T13:36:59.387Z,2.20
2023-01-22T13:39:33.411Z,2.03
2023-01-22T13:42:05.018Z,1.52
2023-01-22T13:44:37.715Z,1.65
2023-01-22T13:47:05.391Z,1.60
2023-01-22T13:49:34.503Z,1.38
2023-01-22T13:52:05.908Z,1.67
2023-01-22T13:54:37.168Z,1.75
2023-01-22T13:57:05.614Z,1.60
2023-01-22T13:59:35.152Z,1.65
2023-01-22T14:02:21.865Z,1.70
2023-01-22T14:04:49.535Z,1.50
2023-01-22T14:07:33.850Z,3.92
2023-01-22T14:10:21.976Z,2.80
2023-01-22T14:13:10.442Z,1.83
2023-01-22T14:15:38.734Z,2.03
2023-01-22T14:18:16.972Z,2.47
2023-01-22T14:20:45.776Z,3.10
2023-01-22T14:23:12.961Z,2.08
2023-01-22T14:25:42.792Z,1.58
2023-01-22T14:28:09.431Z,1.90
2023-01-22T14:30:36.096Z,1.73
2023-01-22T14:33:03.493Z,1.50
2023-01-22T14:35:30.350Z,2.25
2023-01-22T14:37:56.996Z,2.10
2023-01-22T14:40:25.864Z,2.90
2023-01-22T14:42:52.750Z,2.22
2023-01-22T14:45:20.341Z,3.63
2023-01-22T14:47:51.933Z,2.58
2023-01-22T14:50:20.240Z,2.92
2023-01-22T14:52:48.162Z,2.83
2023-01-22T14:55:15.275Z,2.65
2023-01-22T14:57:41.863Z,2.38
2023-01-22T15:00:11.277Z,2.90
2023-01-22T15:02:39.883Z,3.20
2023-01-22T15:05:07.091Z,3.42
2023-01-22T15:07:33.872Z,5.43
2023-01-22T15:10:01.770Z,5.05
2023-01-22T15:12:28.478Z,4.38
2023-01-22T15:14:55.169Z,4.90
2023-01-22T15:17:21.926Z,4.82
2023-01-22T15:19:49.091Z,4.60
2023-01-22T15:22:16.350Z,5.03
2023-01-22T15:24:43.857Z,4.78
2023-01-22T15:27:11.213Z,4.97
2023-01-22T15:29:38.383Z,5.32
2023-01-22T15:32:05.166Z,5.93
2023-01-22T15:34:31.763Z,6.03
2023-01-22T15:37:02.890Z,5.68
2023-01-22T15:39:29.827Z,6.05
2023-01-22T15:41:56.475Z,5.88
2023-01-22T15:44:23.146Z,5.88
2023-01-22T15:46:50.134Z,6.00
2023-01-22T15:49:18.105Z,6.63
2023-01-22T15:51:44.914Z,6.18
2023-01-22T15:54:15.072Z,6.82
2023-01-22T15:56:42.080Z,6.45
2023-01-22T15:59:08.987Z,6.57
2023-01-22T16:01:36.531Z,6.70
2023-01-22T16:04:04.504Z,7.20
2023-01-22T16:06:33.278Z,7.78
2023-01-22T16:09:02.101Z,6.88
2023-01-22T16:11:29.854Z,7.60
2023-01-22T16:13:56.618Z,6.95
2023-01-22T16:16:38.098Z,6.93
2023-01-22T16:19:07.365Z,6.82
2023-01-22T16:21:34.561Z,6.70
2023-01-22T16:24:02.476Z,7.32
2023-01-22T16:26:32.051Z,6.97
2023-01-22T16:29:01.335Z,7.32
2023-01-22T16:31:31.064Z,7.03
2023-01-22T16:33:59.953Z,6.97
2023-01-22T16:36:29.661Z,6.97
2023-01-22T16:38:56.372Z,6.50
2023-01-22T16:41:24.998Z,6.85
2023-01-22T16:43:53.652Z,6.78
2023-01-22T16:46:23.529Z,7.43
2023-01-22T16:48:55.898Z,7.00
2023-01-22T16:51:25.053Z,7.32
2023-01-22T16:53:52.692Z,7.28
2023-01-22T16:56:19.392Z,7.07
2023-01-22T16:58:45.985Z,7.85
2023-01-22T17:01:14.168Z,8.10
2023-01-22T17:03:41.574Z,8.10
2023-01-22T17:06:20.700Z,7.43
2023-01-22T17:08:47.379Z,7.38
2023-01-22T17:11:16.377Z,8.55
2023-01-22T17:13:44.037Z,8.23
2023-01-22T17:16:11.144Z,8.95
2023-01-22T17:18:37.901Z,8.30
2023-01-22T17:21:06.837Z,8.88
2023-01-22T17:23:33.605Z,9.27
2023-01-22T17:26:05.171Z,8.90
2023-01-22T17:28:31.974Z,8.50
2023-01-22T17:30:58.597Z,8.93
2023-01-22T17:33:25.311Z,9.63
2023-01-22T17:35:58.067Z,8.73
2023-01-22T17:38:24.847Z,8.55
2023-01-22T17:40:51.461Z,10.25
2023-01-22T17:43:18.202Z,11.18
2023-01-22T17:45:44.780Z,10.25
2023-01-22T17:48:11.463Z,10.38
2023-01-22T17:50:38.124Z,9.95
2023-01-22T17:53:04.998Z,11.13
2023-01-22T17:55:31.619Z,10.77
2023-01-22T17:57:59.823Z,10.95
2023-01-22T18:00:26.424Z,11.95
2023-01-22T18:02:53.063Z,11.40
2023-01-22T18:05:19.996Z,12.65
2023-01-22T18:07:46.758Z,12.40
2023-01-22T18:10:13.535Z,12.57
2023-01-22T18:12:40.333Z,13.77
2023-01-22T18:15:07.259Z,15.55
2023-01-22T18:17:35.194Z,15.20
2023-01-22T18:20:03.406Z,14.45
2023-01-22T18:22:30.572Z,14.10
2023-01-22T18:24:59.025Z,14.10
2023-01-22T18:27:25.956Z,13.05
2023-01-22T18:29:52.540Z,13.30
2023-01-22T18:32:19.510Z,13.95
2023-01-22T18:34:46.085Z,14.57
2023-01-22T18:37:13.154Z,16.38
2023-01-22T18:39:40.767Z,14.30
2023-01-22T18:42:07.420Z,14.80
2023-01-22T18:44:34.183Z,15.38
2023-01-22T18:47:01.757Z,14.07
2023-01-22T18:49:29.016Z,14.10
2023-01-22T18:51:59.243Z,14.35
2023-01-22T18:54:26.016Z,14.50
2023-01-22T18:56:52.671Z,14.65
2023-01-22T18:59:19.254Z,14.73
2023-01-22T19:01:51.443Z,14.88
2023-01-22T19:04:20.858Z,14.52
2023-01-22T19:06:51.878Z,16.00
2023-01-22T19:09:20.283Z,15.73
2023-01-22T19:11:49.176Z,16.55
2023-01-22T19:14:17.603Z,15.75
2023-01-22T19:16:48.174Z,16.30
2023-01-22T19:19:15.989Z,15.43
2023-01-22T19:21:46.952Z,14.85
2023-01-22T19:24:18.504Z,14.25
2023-01-22T19:26:46.651Z,14.02
2023-01-22T19:29:17.200Z,14.18
2023-01-22T19:31:46.429Z,15.05
2023-01-22T19:34:18.507Z,15.02
2023-01-22T19:36:45.174Z,14.65
2023-01-22T19:39:13.018Z,15.25
2023-01-22T19:41:40.762Z,15.82
2023-01-22T19:44:09.117Z,15.35
2023-01-22T19:46:37.839Z,15.30
2023-01-22T19:49:05.644Z,18.27
2023-01-22T19:51:32.472Z,16.45
2023-01-22T19:54:00.438Z,16.75
2023-01-22T19:56:29.882Z,18.67
2023-01-22T19:59:03.061Z,17.52
2023-01-22T20:01:29.909Z,17.13
2023-01-22T20:03:56.509Z,18.17
2023-01-22T20:06:23.974Z,18.50
2023-01-22T20:08:51.823Z,16.65
2023-01-22T20:11:19.003Z,17.23
2023-01-22T20:13:46.191Z,15.98
2023-01-22T20:16:19.388Z,15.25
2023-01-22T20:18:47.014Z,15.02
2023-01-22T20:21:14.533Z,16.48
2023-01-22T20:23:41.722Z,15.63
2023-01-22T20:26:09.796Z,16.10
2023-01-22T20:28:37.172Z,15.52
2023-01-22T20:31:07.664Z,15.88
2023-01-22T20:33:34.315Z,14.73
2023-01-22T20:36:05.055Z,15.02
2023-01-22T20:38:31.735Z,14.63
2023-01-22T20:41:04.520Z,13.52
2023-01-22T20:43:32.327Z,11.80
2023-01-22T20:46:01.800Z,12.30
2023-01-22T20:48:30.321Z,12.65
2023-01-22T20:50:58.139Z,12.65
2023-01-22T20:53:25.787Z,13.05
2023-01-22T20:56:04.449Z,11.73
2023-01-22T20:58:31.288Z,11.63
2023-01-22T21:01:15.945Z,11.57
2023-01-22T21:03:43.928Z,11.25
2023-01-22T21:06:14.129Z,12.18
2023-01-22T21:08:42.179Z,13.35
2023-01-22T21:11:12.325Z,13.40
2023-01-22T21:13:40.612Z,16.75
2023-01-22T21:16:15.993Z,18.60
2023-01-22T21:18:44.724Z,18.13
2023-01-22T21:21:14.998Z,18.65
2023-01-22T21:23:41.617Z,19.02
2023-01-22T21:26:11.711Z,19.80
2023-01-22T21:28:39.721Z,17.40
2023-01-22T21:31:12.807Z,18.92
2023-01-22T21:33:40.696Z,19.15
2023-01-22T21:36:09.495Z,19.20
2023-01-22T21:38:37.187Z,19.25
2023-01-22T21:41:06.408Z,18.77
2023-01-22T21:43:51.804Z,18.55
2023-01-22T21:46:27.330Z,16.88
2023-01-22T21:48:58.315Z,18.20
2023-01-22T21:51:30.122Z,18.30
2023-01-22T21:53:58.278Z,16.88
2023-01-22T21:56:26.696Z,18.45
2023-01-22T21:58:53.670Z,18.33
2023-01-22T22:01:22.164Z,16.55
2023-01-22T22:03:49.252Z,17.38
2023-01-22T22:06:16.209Z,16.13
2023-01-22T22:08:44.581Z,15.75
2023-01-22T22:11:13.536Z,15.70
2023-01-22T22:13:41.056Z,17.35
2023-01-22T22:16:08.569Z,16.40
2023-01-22T22:18:35.819Z,16.02
2023-01-22T22:21:06.338Z,15.77
2023-01-22T22:23:35.458Z,15.57
2023-01-22T22:26:03.814Z,16.10
2023-01-22T22:28:30.802Z,14.90
2023-01-22T22:31:11.740Z,15.10
2023-01-22T22:33:40.280Z,13.80
2023-01-22T22:36:08.131Z,13.98
2023-01-22T22:38:35.777Z,14.80
2023-01-22T22:41:13.439Z,14.63
2023-01-22T22:43:45.798Z,16.27
2023-01-22T22:46:18.470Z,15.02
2023-01-22T22:48:46.748Z,16.15
2023-01-22T22:51:23.333Z,16.95
2023-01-22T22:53:53.021Z,15.95
2023-01-22T22:56:20.440Z,16.73
2023-01-22T22:58:47.339Z,15.10
2023-01-22T23:01:20.445Z,17.08
2023-01-22T23:06:22.138Z,16.77
2023-01-22T23:08:52.300Z,17.23
2023-01-22T23:11:21.940Z,17.60
2023-01-22T23:13:49.975Z,17.77
2023-01-22T23:16:20.012Z,16.60
2023-01-22T23:18:51.558Z,17.60
2023-01-22T23:21:23.429Z,15.77
2023-01-22T23:23:52.096Z,14.35
2023-01-22T23:26:27.890Z,14.10
2023-01-22T23:28:58.819Z,14.65
2023-01-22T23:31:27.119Z,14.75
2023-01-22T23:33:56.093Z,15.07
2023-01-22T23:36:24.574Z,14.18
2023-01-22T23:38:51.643Z,13.75
2023-01-22T23:41:21.238Z,15.07
2023-01-22T23:43:48.124Z,14.90
2023-01-22T23:46:22.351Z,14.60
2023-01-22T23:48:50.139Z,15.25
2023-01-22T23:51:19.043Z,14.65
2023-01-22T23:53:48.321Z,14.60
2023-01-22T23:56:15.914Z,14.95
2023-01-22T23:58:43.214Z,14.80
